OHPAS LOWW-LOWI
Flight info
| Callsign | OHPAS |
|---|---|
| Flight time | N/A |
| Altitude | 22000 |
| Route | SOVIL DCT GAMLI DCT RASTA DCT NANIT |
| Aircraft | PC12/L-SDFGRWY/S |
Departure
| Time | 2026-05-06 18:57 |
|---|---|
| Airport | Vienna International Airport (LOWW) |
Arrival
| Time | N/A |
|---|---|
| Airport | Innsbruck Airport (LOWI) |
| Time | Latitude | Longitude | Altitude | Speed | Heading |
|---|---|---|---|---|---|
| 2026-05-06 18:21 | 48.12596 | 16.53611 | 607 ft | 0 kts | 295° |
| 2026-05-06 18:25 | 48.12596 | 16.53612 | 607 ft | 0 kts | 295° |
| 2026-05-06 18:26 | 48.12595 | 16.53612 | 607 ft | 0 kts | 295° |
| 2026-05-06 18:30 | 48.12595 | 16.53613 | 607 ft | 0 kts | 295° |
| 2026-05-06 18:34 | 48.12597 | 16.53606 | 607 ft | 4 kts | 295° |
| 2026-05-06 18:34 | 48.12573 | 16.53552 | 607 ft | 8 kts | 208° |
| 2026-05-06 18:35 | 48.12549 | 16.53511 | 607 ft | 6 kts | 223° |
| 2026-05-06 18:35 | 48.12504 | 16.53502 | 607 ft | 8 kts | 179° |
| 2026-05-06 18:35 | 48.12456 | 16.53489 | 607 ft | 2 kts | 187° |
| 2026-05-06 18:35 | 48.12444 | 16.53493 | 612 ft | 3 kts | 146° |
| 2026-05-06 18:36 | 48.12424 | 16.53546 | 607 ft | 9 kts | 117° |
| 2026-05-06 18:36 | 48.12391 | 16.53646 | 619 ft | 12 kts | 116° |
| 2026-05-06 18:36 | 48.12349 | 16.53776 | 614 ft | 15 kts | 116° |
| 2026-05-06 18:36 | 48.12304 | 16.53914 | 617 ft | 14 kts | 116° |
| 2026-05-06 18:37 | 48.12266 | 16.54028 | 607 ft | 11 kts | 116° |
| 2026-05-06 18:37 | 48.12246 | 16.54090 | 607 ft | 9 kts | 116° |
| 2026-05-06 18:37 | 48.12270 | 16.54184 | 607 ft | 9 kts | 36° |
| 2026-05-06 18:37 | 48.12267 | 16.54270 | 608 ft | 8 kts | 116° |
| 2026-05-06 18:38 | 48.12242 | 16.54347 | 609 ft | 9 kts | 114° |
| 2026-05-06 18:38 | 48.12211 | 16.54443 | 609 ft | 12 kts | 116° |
| 2026-05-06 18:38 | 48.12173 | 16.54561 | 610 ft | 13 kts | 116° |
| 2026-05-06 18:38 | 48.12135 | 16.54675 | 608 ft | 11 kts | 116° |
| 2026-05-06 18:39 | 48.12102 | 16.54779 | 619 ft | 11 kts | 116° |
| 2026-05-06 18:39 | 48.12065 | 16.54893 | 608 ft | 13 kts | 116° |
| 2026-05-06 18:39 | 48.12023 | 16.55020 | 610 ft | 14 kts | 116° |
| 2026-05-06 18:40 | 48.11940 | 16.55278 | 610 ft | 10 kts | 116° |
| 2026-05-06 18:40 | 48.11914 | 16.55357 | 610 ft | 7 kts | 116° |
| 2026-05-06 18:40 | 48.11893 | 16.55429 | 610 ft | 8 kts | 110° |
| 2026-05-06 18:40 | 48.11867 | 16.55538 | 609 ft | 13 kts | 115° |
| 2026-05-06 18:41 | 48.11824 | 16.55671 | 610 ft | 15 kts | 116° |
| 2026-05-06 18:41 | 48.11777 | 16.55815 | 607 ft | 16 kts | 116° |
| 2026-05-06 18:41 | 48.11730 | 16.55960 | 613 ft | 15 kts | 116° |
| 2026-05-06 18:41 | 48.11688 | 16.56087 | 616 ft | 13 kts | 116° |
| 2026-05-06 18:42 | 48.11651 | 16.56200 | 609 ft | 11 kts | 116° |
| 2026-05-06 18:42 | 48.11617 | 16.56305 | 607 ft | 11 kts | 115° |
| 2026-05-06 18:42 | 48.11584 | 16.56407 | 612 ft | 11 kts | 116° |
| 2026-05-06 18:42 | 48.11551 | 16.56507 | 611 ft | 11 kts | 116° |
| 2026-05-06 18:43 | 48.11529 | 16.56574 | 619 ft | 11 kts | 116° |
| 2026-05-06 18:43 | 48.11497 | 16.56672 | 614 ft | 11 kts | 116° |
| 2026-05-06 18:43 | 48.11463 | 16.56776 | 610 ft | 11 kts | 116° |
| 2026-05-06 18:43 | 48.11428 | 16.56883 | 615 ft | 12 kts | 116° |
| 2026-05-06 18:44 | 48.11392 | 16.56994 | 610 ft | 12 kts | 116° |
| 2026-05-06 18:44 | 48.11355 | 16.57109 | 612 ft | 13 kts | 115° |
| 2026-05-06 18:44 | 48.11318 | 16.57222 | 607 ft | 9 kts | 116° |
| 2026-05-06 18:44 | 48.11305 | 16.57310 | 607 ft | 10 kts | 65° |
| 2026-05-06 18:45 | 48.11386 | 16.57383 | 607 ft | 17 kts | 26° |
| 2026-05-06 18:45 | 48.11490 | 16.57456 | 607 ft | 11 kts | 15° |
| 2026-05-06 18:45 | 48.11570 | 16.57446 | 607 ft | 13 kts | 344° |
| 2026-05-06 18:45 | 48.11671 | 16.57404 | 609 ft | 17 kts | 344° |
| 2026-05-06 18:46 | 48.11794 | 16.57352 | 610 ft | 19 kts | 344° |
| 2026-05-06 18:46 | 48.11907 | 16.57304 | 607 ft | 13 kts | 346° |
| 2026-05-06 18:46 | 48.11974 | 16.57299 | 615 ft | 8 kts | 35° |
| 2026-05-06 18:46 | 48.11985 | 16.57320 | 609 ft | 0 kts | 71° |
| 2026-05-06 18:47 | 48.11996 | 16.57363 | 607 ft | 9 kts | 71° |
| 2026-05-06 18:47 | 48.12013 | 16.57458 | 609 ft | 10 kts | 78° |
| 2026-05-06 18:47 | 48.12004 | 16.57546 | 615 ft | 8 kts | 104° |
| 2026-05-06 18:47 | 48.11997 | 16.57583 | 609 ft | 0 kts | 104° |
| 2026-05-06 18:50 | 48.11997 | 16.57582 | 609 ft | 0 kts | 104° |
| 2026-05-06 18:55 | 48.11994 | 16.57597 | 612 ft | 7 kts | 106° |
| 2026-05-06 18:55 | 48.11979 | 16.57683 | 607 ft | 11 kts | 105° |
| 2026-05-06 18:56 | 48.11955 | 16.57802 | 610 ft | 12 kts | 115° |
| 2026-05-06 18:56 | 48.11893 | 16.57854 | 607 ft | 10 kts | 165° |
| 2026-05-06 18:56 | 48.11695 | 16.57938 | 609 ft | 50 kts | 163° |
| 2026-05-06 18:56 | 48.11260 | 16.58118 | 623 ft | 75 kts | 145° |
| 2026-05-06 18:57 | 48.10741 | 16.58396 | 685 ft | 85 kts | 171° |
| 2026-05-06 18:57 | 48.10154 | 16.58636 | 898 ft | 88 kts | 166° |
| 2026-05-06 18:57 | 48.09539 | 16.58870 | 1120 ft | 92 kts | 168° |
| 2026-05-06 18:57 | 48.08923 | 16.59112 | 1387 ft | 90 kts | 169° |
| 2026-05-06 18:58 | 48.08314 | 16.59357 | 1637 ft | 94 kts | 170° |
| 2026-05-06 18:58 | 48.07657 | 16.59623 | 1879 ft | 103 kts | 171° |
| 2026-05-06 18:58 | 48.06932 | 16.59914 | 2145 ft | 112 kts | 173° |
| 2026-05-06 18:58 | 48.06166 | 16.59696 | 2429 ft | 121 kts | 211° |
| 2026-05-06 18:59 | 48.05564 | 16.58717 | 2693 ft | 135 kts | 226° |
| 2026-05-06 18:59 | 48.04947 | 16.57570 | 2953 ft | 148 kts | 227° |
| 2026-05-06 18:59 | 48.04276 | 16.56318 | 3200 ft | 159 kts | 231° |
| 2026-05-06 18:59 | 48.04005 | 16.54665 | 3520 ft | 171 kts | 264° |
| 2026-05-06 19:00 | 48.04028 | 16.52897 | 3898 ft | 168 kts | 262° |
| 2026-05-06 19:00 | 48.04029 | 16.51160 | 4266 ft | 167 kts | 263° |
| 2026-05-06 19:00 | 48.04042 | 16.49428 | 4643 ft | 166 kts | 264° |
| 2026-05-06 19:00 | 48.04059 | 16.47695 | 5009 ft | 167 kts | 265° |
| 2026-05-06 19:01 | 48.04084 | 16.45988 | 5370 ft | 158 kts | 268° |
| 2026-05-06 19:01 | 48.04097 | 16.44327 | 5743 ft | 164 kts | 264° |
| 2026-05-06 19:01 | 48.04107 | 16.42619 | 6125 ft | 165 kts | 265° |
| 2026-05-06 19:01 | 48.04124 | 16.40900 | 6465 ft | 166 kts | 266° |
| 2026-05-06 19:02 | 48.04141 | 16.39163 | 6820 ft | 167 kts | 266° |
| 2026-05-06 19:02 | 48.04157 | 16.37416 | 7185 ft | 168 kts | 266° |
| 2026-05-06 19:02 | 48.04174 | 16.35660 | 7552 ft | 169 kts | 266° |
| 2026-05-06 19:02 | 48.04190 | 16.33900 | 7922 ft | 170 kts | 266° |
| 2026-05-06 19:03 | 48.04206 | 16.32129 | 8294 ft | 171 kts | 267° |